createdAt,value
2023-04-23T00:01:39.350Z,10.18
2023-04-23T00:04:09.336Z,10.70
2023-04-23T00:06:37.169Z,10.88
2023-04-23T00:09:07.005Z,10.60
2023-04-23T00:11:35.407Z,10.95
2023-04-23T00:14:02.987Z,10.18
2023-04-23T00:16:30.953Z,10.07
2023-04-23T00:18:58.635Z,9.30
2023-04-23T00:21:27.689Z,9.73
2023-04-23T00:23:55.215Z,9.63
2023-04-23T00:26:22.869Z,9.73
2023-04-23T00:28:50.318Z,10.10
2023-04-23T00:31:18.667Z,9.48
2023-04-23T00:33:46.427Z,10.30
2023-04-23T00:36:13.963Z,10.48
2023-04-23T00:38:41.407Z,10.40
2023-04-23T00:41:09.453Z,10.45
2023-04-23T00:43:38.047Z,9.45
2023-04-23T00:46:06.119Z,9.63
2023-04-23T00:48:34.982Z,9.27
2023-04-23T00:51:06.194Z,9.88
2023-04-23T00:53:34.228Z,9.65
2023-04-23T00:56:02.260Z,9.63
2023-04-23T00:58:29.985Z,9.40
2023-04-23T01:00:58.020Z,9.57
2023-04-23T01:03:26.580Z,10.13
2023-04-23T01:05:54.319Z,10.05
2023-04-23T01:08:23.710Z,9.97
2023-04-23T01:10:51.332Z,9.95
2023-04-23T01:13:18.824Z,9.40
2023-04-23T01:15:46.604Z,10.90
2023-04-23T01:18:15.955Z,10.50
2023-04-23T01:20:43.861Z,10.13
2023-04-23T01:23:11.901Z,10.05
2023-04-23T01:25:39.330Z,9.93
2023-04-23T01:28:06.834Z,10.35
2023-04-23T01:30:35.361Z,10.05
2023-04-23T01:33:03.614Z,9.82
2023-04-23T01:35:31.945Z,10.07
2023-04-23T01:38:02.959Z,10.90
2023-04-23T01:40:30.831Z,10.57
2023-04-23T01:42:58.516Z,10.30
2023-04-23T01:45:26.451Z,10.95
2023-04-23T01:47:54.196Z,10.18
2023-04-23T01:50:24.459Z,10.27
2023-04-23T01:52:52.250Z,10.38
2023-04-23T01:55:20.898Z,10.50
2023-04-23T01:57:48.341Z,10.18
2023-04-23T02:00:17.178Z,10.02
2023-04-23T02:02:45.425Z,10.35
2023-04-23T02:05:16.456Z,10.63
2023-04-23T02:07:45.452Z,9.68
2023-04-23T02:10:13.460Z,10.07
2023-04-23T02:12:41.575Z,10.48
2023-04-23T02:15:11.200Z,10.00
2023-04-23T02:17:40.250Z,10.45
2023-04-23T02:20:11.720Z,10.65
2023-04-23T02:22:41.453Z,10.43
2023-04-23T02:25:09.609Z,10.27
2023-04-23T02:27:37.134Z,10.68
2023-04-23T02:30:05.004Z,10.18
2023-04-23T02:32:32.747Z,10.15
2023-04-23T02:35:02.075Z,10.30
2023-04-23T02:37:29.537Z,10.27
2023-04-23T02:39:57.217Z,10.20
2023-04-23T02:42:24.625Z,10.55
2023-04-23T02:44:52.047Z,10.32
2023-04-23T02:47:19.894Z,10.57
2023-04-23T02:49:47.336Z,10.20
2023-04-23T02:52:14.794Z,10.10
2023-04-23T02:54:42.666Z,10.40
2023-04-23T02:57:10.319Z,10.85
2023-04-23T02:59:38.611Z,10.70
2023-04-23T03:02:06.477Z,10.33
2023-04-23T03:04:34.493Z,10.95
2023-04-23T03:07:02.012Z,10.50
2023-04-23T03:09:32.921Z,10.73
2023-04-23T03:12:00.377Z,10.43
2023-04-23T03:14:27.903Z,10.80
2023-04-23T03:16:55.893Z,10.50
2023-04-23T03:19:23.588Z,10.77
2023-04-23T03:21:51.076Z,10.65
2023-04-23T03:24:18.828Z,10.93
2023-04-23T03:26:46.354Z,10.30
2023-04-23T03:29:13.798Z,10.05
2023-04-23T03:31:41.490Z,10.15
2023-04-23T03:34:09.511Z,10.60
2023-04-23T03:36:37.105Z,10.30
2023-04-23T03:39:04.933Z,10.45
2023-04-23T03:41:33.745Z,10.75
2023-04-23T03:44:01.690Z,10.40
2023-04-23T03:46:29.805Z,10.52
2023-04-23T03:48:57.283Z,10.43
2023-04-23T03:51:25.045Z,10.33
2023-04-23T03:53:52.720Z,10.25
2023-04-23T03:56:21.748Z,10.10
2023-04-23T03:58:49.828Z,10.45
2023-04-23T04:01:18.255Z,10.50
2023-04-23T04:03:46.186Z,10.40
2023-04-23T04:06:13.746Z,10.60
2023-04-23T04:08:41.259Z,10.98
2023-04-23T04:11:08.940Z,10.25
2023-04-23T04:13:36.391Z,9.85
2023-04-23T04:16:03.978Z,10.10
2023-04-23T04:18:31.844Z,10.35
2023-04-23T04:20:59.271Z,10.52
2023-04-23T04:23:26.935Z,9.73
2023-04-23T04:25:56.567Z,10.48
2023-04-23T04:28:25.299Z,10.77
2023-04-23T04:30:57.592Z,10.75
2023-04-23T04:33:26.000Z,10.73
2023-04-23T04:35:54.843Z,10.57
2023-04-23T04:38:22.427Z,10.53
2023-04-23T04:40:50.607Z,10.45
2023-04-23T04:43:18.517Z,10.13
2023-04-23T04:45:45.957Z,11.00
2023-04-23T04:48:13.591Z,10.55
2023-04-23T04:50:40.980Z,10.63
2023-04-23T04:53:08.396Z,10.48
2023-04-23T04:55:36.056Z,10.60
2023-04-23T04:58:03.481Z,10.60
2023-04-23T05:00:30.882Z,11.35
2023-04-23T05:02:59.031Z,10.82
2023-04-23T05:05:27.268Z,10.90
2023-04-23T05:07:54.943Z,11.02
2023-04-23T05:10:22.730Z,10.60
2023-04-23T05:12:51.894Z,10.52
2023-04-23T05:15:19.535Z,11.35
2023-04-23T05:17:47.335Z,10.98
2023-04-23T05:20:15.304Z,11.50
2023-04-23T05:22:43.199Z,11.45
2023-04-23T05:25:14.635Z,11.40
2023-04-23T05:27:42.188Z,11.68
2023-04-23T05:30:11.135Z,11.57
2023-04-23T05:32:39.294Z,10.98
2023-04-23T05:35:09.722Z,11.10
2023-04-23T05:37:37.148Z,11.66
2023-04-23T05:40:07.293Z,10.57
2023-04-23T05:42:36.028Z,11.23
2023-04-23T05:45:03.718Z,10.48
2023-04-23T05:47:34.321Z,10.77
2023-04-23T05:50:02.787Z,11.20
2023-04-23T05:52:33.547Z,11.63
2023-04-23T05:55:01.523Z,11.12
2023-04-23T05:57:28.969Z,11.25
2023-04-23T05:59:56.609Z,12.13
2023-04-23T06:02:25.311Z,12.10
2023-04-23T06:04:53.256Z,11.35
2023-04-23T06:07:21.147Z,10.98
2023-04-23T06:09:48.770Z,12.32
2023-04-23T06:12:16.438Z,12.25
2023-04-23T06:14:43.931Z,11.90
2023-04-23T06:17:11.502Z,11.85
2023-04-23T06:19:39.183Z,12.02
2023-04-23T06:22:06.557Z,12.32
2023-04-23T06:24:33.956Z,12.48
2023-04-23T06:27:02.840Z,12.32
2023-04-23T06:29:30.960Z,11.32
2023-04-23T06:32:01.805Z,11.63
2023-04-23T06:34:29.527Z,11.18
2023-04-23T06:36:56.950Z,11.23
2023-04-23T06:39:24.380Z,11.20
2023-04-23T06:41:52.116Z,11.18
2023-04-23T06:44:21.015Z,11.12
2023-04-23T06:46:48.598Z,11.40
2023-04-23T06:49:16.312Z,10.85
2023-04-23T06:51:44.181Z,10.80
2023-04-23T06:54:11.573Z,12.55
2023-04-23T06:56:39.239Z,10.73
2023-04-23T06:59:06.955Z,10.27
2023-04-23T07:01:35.277Z,9.73
2023-04-23T07:04:03.029Z,9.23
2023-04-23T07:06:31.262Z,9.52
2023-04-23T07:08:58.953Z,9.90
2023-04-23T07:11:26.789Z,10.00
2023-04-23T07:13:54.622Z,9.32
2023-04-23T07:16:22.968Z,8.95
2023-04-23T07:18:50.860Z,9.23
2023-04-23T07:21:18.246Z,8.90
2023-04-23T07:23:45.995Z,8.80
2023-04-23T07:26:14.034Z,8.55
2023-04-23T07:28:41.595Z,8.98
2023-04-23T07:31:09.495Z,8.27
2023-04-23T07:33:37.184Z,9.07
2023-04-23T07:36:04.611Z,9.13
2023-04-23T07:38:31.994Z,9.05
2023-04-23T07:41:00.003Z,8.90
2023-04-23T07:43:27.597Z,8.30
2023-04-23T07:45:55.554Z,7.18
2023-04-23T07:48:23.254Z,6.80
2023-04-23T07:50:51.251Z,6.72
2023-04-23T07:53:18.768Z,6.05
2023-04-23T07:55:46.467Z,6.22
2023-04-23T07:58:14.085Z,5.70
2023-04-23T08:00:42.804Z,6.18
2023-04-23T08:03:10.597Z,6.15
2023-04-23T08:05:39.230Z,5.95
2023-04-23T08:08:08.111Z,6.33
2023-04-23T08:10:36.022Z,5.95
2023-04-23T08:13:03.717Z,5.85
2023-04-23T08:15:31.145Z,5.97
2023-04-23T08:17:58.945Z,5.47
2023-04-23T08:20:27.469Z,5.80
2023-04-23T08:22:55.737Z,5.72
2023-04-23T08:25:23.632Z,5.85
2023-04-23T08:27:51.184Z,6.07
2023-04-23T08:30:18.671Z,6.35
2023-04-23T08:32:49.592Z,5.90
2023-04-23T08:35:17.335Z,6.30
2023-04-23T08:40:13.283Z,7.87
2023-04-23T08:42:51.700Z,7.70
2023-04-23T08:45:19.787Z,7.05
